sensor_id;sensor_type;location;lat;lon;timestamp;pressure;altitude;pressure_sealevel;temperature;humidity
45285;BME280;31026;43.780;25.948;2022-12-18T00:01:20;101720.88;;;15.76;71.71
45285;BME280;31026;43.780;25.948;2022-12-18T00:03:49;101710.19;;;15.76;71.82
45285;BME280;31026;43.780;25.948;2022-12-18T00:06:20;101710.97;;;15.78;71.42
45285;BME280;31026;43.780;25.948;2022-12-18T00:08:49;101720.66;;;15.79;71.68
45285;BME280;31026;43.780;25.948;2022-12-18T00:11:18;101710.00;;;15.79;71.29
45285;BME280;31026;43.780;25.948;2022-12-18T00:13:47;101733.91;;;15.81;71.31
45285;BME280;31026;43.780;25.948;2022-12-18T00:16:17;101712.03;;;15.76;71.36
45285;BME280;31026;43.780;25.948;2022-12-18T00:18:46;101727.13;;;15.75;71.48
45285;BME280;31026;43.780;25.948;2022-12-18T00:21:15;101733.25;;;15.77;71.42
45285;BME280;31026;43.780;25.948;2022-12-18T00:23:46;101736.88;;;15.76;71.61
45285;BME280;31026;43.780;25.948;2022-12-18T00:26:16;101737.03;;;15.73;71.51
45285;BME280;31026;43.780;25.948;2022-12-18T00:28:45;101744.97;;;15.75;71.34
45285;BME280;31026;43.780;25.948;2022-12-18T00:31:14;101752.03;;;15.76;71.48
45285;BME280;31026;43.780;25.948;2022-12-18T00:33:43;101757.44;;;15.74;71.47
45285;BME280;31026;43.780;25.948;2022-12-18T00:36:12;101764.56;;;15.74;71.29
45285;BME280;31026;43.780;25.948;2022-12-18T00:38:42;101774.22;;;15.76;71.35
45285;BME280;31026;43.780;25.948;2022-12-18T00:41:14;101770.78;;;15.74;71.62
45285;BME280;31026;43.780;25.948;2022-12-18T00:44:03;101773.66;;;15.69;71.36
45285;BME280;31026;43.780;25.948;2022-12-18T00:46:29;101780.72;;;15.70;71.47
45285;BME280;31026;43.780;25.948;2022-12-18T00:48:58;101780.81;;;15.69;71.52
45285;BME280;31026;43.780;25.948;2022-12-18T00:51:26;101788.88;;;15.67;71.32
45285;BME280;31026;43.780;25.948;2022-12-18T00:53:55;101770.22;;;15.67;71.41
45285;BME280;31026;43.780;25.948;2022-12-18T00:56:26;101789.00;;;15.66;71.79
45285;BME280;31026;43.780;25.948;2022-12-18T00:58:54;101786.41;;;15.64;71.46
45285;BME280;31026;43.780;25.948;2022-12-18T01:01:22;101794.34;;;15.66;71.34
45285;BME280;31026;43.780;25.948;2022-12-18T01:03:51;101789.75;;;15.68;71.39
45285;BME280;31026;43.780;25.948;2022-12-18T01:06:19;101789.00;;;15.66;71.55
45285;BME280;31026;43.780;25.948;2022-12-18T01:08:47;101794.13;;;15.69;71.35
45285;BME280;31026;43.780;25.948;2022-12-18T01:11:17;101797.94;;;15.65;71.24
45285;BME280;31026;43.780;25.948;2022-12-18T01:13:48;101797.75;;;15.68;71.39
45285;BME280;31026;43.780;25.948;2022-12-18T01:16:16;101798.63;;;15.68;71.44
45285;BME280;31026;43.780;25.948;2022-12-18T01:18:45;101805.75;;;15.68;71.19
45285;BME280;31026;43.780;25.948;2022-12-18T01:21:14;101805.00;;;15.66;71.23
45285;BME280;31026;43.780;25.948;2022-12-18T01:23:43;101813.94;;;15.65;71.21
45285;BME280;31026;43.780;25.948;2022-12-18T01:26:12;101808.59;;;15.65;71.34
45285;BME280;31026;43.780;25.948;2022-12-18T01:28:41;101808.59;;;15.65;71.44
45285;BME280;31026;43.780;25.948;2022-12-18T01:31:16;101837.84;;;15.66;71.12
45285;BME280;31026;43.780;25.948;2022-12-18T01:33:44;101819.25;;;15.65;71.39
45285;BME280;31026;43.780;25.948;2022-12-18T01:36:16;101813.94;;;15.65;71.18
45285;BME280;31026;43.780;25.948;2022-12-18T01:38:45;101826.13;;;15.69;71.33
45285;BME280;31026;43.780;25.948;2022-12-18T01:41:14;101819.25;;;15.65;71.51
45285;BME280;31026;43.780;25.948;2022-12-18T01:43:45;101826.50;;;15.63;71.19
45285;BME280;31026;43.780;25.948;2022-12-18T01:46:16;101838.19;;;15.60;71.40
45285;BME280;31026;43.780;25.948;2022-12-18T01:48:45;101821.34;;;15.60;71.37
45285;BME280;31026;43.780;25.948;2022-12-18T01:51:14;101852.22;;;15.64;71.21
45285;BME280;31026;43.780;25.948;2022-12-18T01:53:43;101834.56;;;15.61;71.44
45285;BME280;31026;43.780;25.948;2022-12-18T01:56:12;101823.91;;;15.61;71.34
45285;BME280;31026;43.780;25.948;2022-12-18T01:58:47;101845.34;;;15.60;71.29
45285;BME280;31026;43.780;25.948;2022-12-18T02:01:19;101838.28;;;15.59;71.28
45285;BME280;31026;43.780;25.948;2022-12-18T02:03:48;101829.44;;;15.58;71.33
45285;BME280;31026;43.780;25.948;2022-12-18T02:06:18;101828.53;;;15.58;71.24
45285;BME280;31026;43.780;25.948;2022-12-18T02:08:50;101834.06;;;15.55;71.12
45285;BME280;31026;43.780;25.948;2022-12-18T02:11:24;101846.28;;;15.59;71.16
45285;BME280;31026;43.780;25.948;2022-12-18T02:13:57;101838.44;;;15.56;71.03
45285;BME280;31026;43.780;25.948;2022-12-18T02:16:33;101849.88;;;15.58;71.34
45285;BME280;31026;43.780;25.948;2022-12-18T02:19:08;101845.41;;;15.58;71.34
45285;BME280;31026;43.780;25.948;2022-12-18T02:21:47;101850.69;;;15.60;70.85
45285;BME280;31026;43.780;25.948;2022-12-18T02:24:18;101865.72;;;15.61;71.15
45285;BME280;31026;43.780;25.948;2022-12-18T02:26:51;101858.56;;;15.61;70.88
45285;BME280;31026;43.780;25.948;2022-12-18T02:29:24;101858.69;;;15.60;70.78
45285;BME280;31026;43.780;25.948;2022-12-18T02:31:54;101870.44;;;15.56;71.03
45285;BME280;31026;43.780;25.948;2022-12-18T02:34:25;101882.06;;;15.55;70.99
45285;BME280;31026;43.780;25.948;2022-12-18T02:36:54;101890.06;;;15.55;71.22
45285;BME280;31026;43.780;25.948;2022-12-18T02:39:25;101897.09;;;15.56;71.31
45285;BME280;31026;43.780;25.948;2022-12-18T02:41:57;101892.78;;;15.53;70.93
45285;BME280;31026;43.780;25.948;2022-12-18T02:44:27;101897.09;;;15.56;71.12
45285;BME280;31026;43.780;25.948;2022-12-18T02:46:56;101878.63;;;15.52;71.08
45285;BME280;31026;43.780;25.948;2022-12-18T02:49:26;101892.88;;;15.51;70.95
45285;BME280;31026;43.780;25.948;2022-12-18T02:52:01;101903.53;;;15.51;71.15
45285;BME280;31026;43.780;25.948;2022-12-18T02:54:44;101914.19;;;15.51;71.16
45285;BME280;31026;43.780;25.948;2022-12-18T02:57:22;101906.19;;;15.51;71.03
45285;BME280;31026;43.780;25.948;2022-12-18T02:59:56;101908.97;;;15.50;70.98
45285;BME280;31026;43.780;25.948;2022-12-18T03:02:27;101932.00;;;15.51;71.10
45285;BME280;31026;43.780;25.948;2022-12-18T03:04:59;101918.75;;;15.49;71.03
45285;BME280;31026;43.780;25.948;2022-12-18T03:07:33;101939.16;;;15.50;71.02
45285;BME280;31026;43.780;25.948;2022-12-18T03:10:03;101936.56;;;15.49;70.95
45285;BME280;31026;43.780;25.948;2022-12-18T03:12:37;101928.66;;;15.47;71.22
45285;BME280;31026;43.780;25.948;2022-12-18T03:15:09;101947.16;;;15.50;70.99
45285;BME280;31026;43.780;25.948;2022-12-18T03:17:38;101945.53;;;15.48;70.96
45285;BME280;31026;43.780;25.948;2022-12-18T03:20:09;101967.69;;;15.48;70.82
45285;BME280;31026;43.780;25.948;2022-12-18T03:22:40;101965.03;;;15.48;70.78
45285;BME280;31026;43.780;25.948;2022-12-18T03:25:12;101957.81;;;15.50;70.81
45285;BME280;31026;43.780;25.948;2022-12-18T03:27:44;101965.03;;;15.48;70.78
45285;BME280;31026;43.780;25.948;2022-12-18T03:30:14;101968.63;;;15.47;70.68
45285;BME280;31026;43.780;25.948;2022-12-18T03:32:44;101967.69;;;15.48;70.89
45285;BME280;31026;43.780;25.948;2022-12-18T03:35:16;101965.28;;;15.44;71.03
45285;BME280;31026;43.780;25.948;2022-12-18T03:37:47;101983.84;;;15.45;71.08
45285;BME280;31026;43.780;25.948;2022-12-18T03:40:15;101973.19;;;15.45;70.81
45285;BME280;31026;43.780;25.948;2022-12-18T03:42:46;101981.19;;;15.45;70.89
45285;BME280;31026;43.780;25.948;2022-12-18T03:45:19;101991.94;;;15.44;71.04
45285;BME280;31026;43.780;25.948;2022-12-18T03:47:51;101985.03;;;15.40;71.17
45285;BME280;31026;43.780;25.948;2022-12-18T03:50:22;101990.22;;;15.43;71.04
45285;BME280;31026;43.780;25.948;2022-12-18T03:52:56;102000.88;;;15.43;71.05
45285;BME280;31026;43.780;25.948;2022-12-18T03:55:26;101999.06;;;15.43;71.00
45285;BME280;31026;43.780;25.948;2022-12-18T03:57:58;102004.25;;;15.46;70.71
45285;BME280;31026;43.780;25.948;2022-12-18T04:00:28;102003.47;;;15.44;70.82
45285;BME280;31026;43.780;25.948;2022-12-18T04:02:57;102008.16;;;15.39;71.01
45285;BME280;31026;43.780;25.948;2022-12-18T04:05:28;102025.72;;;15.43;70.80
45285;BME280;31026;43.780;25.948;2022-12-18T04:07:58;102022.28;;;15.41;70.80
45285;BME280;31026;43.780;25.948;2022-12-18T04:10:27;102026.69;;;15.42;70.82
45285;BME280;31026;43.780;25.948;2022-12-18T04:12:55;102025.91;;;15.40;71.04
45285;BME280;31026;43.780;25.948;2022-12-18T04:15:26;102018.75;;;15.41;70.70
45285;BME280;31026;43.780;25.948;2022-12-18T04:17:55;102027.69;;;15.40;70.93
45285;BME280;31026;43.780;25.948;2022-12-18T04:20:23;102016.16;;;15.39;70.95
45285;BME280;31026;43.780;25.948;2022-12-18T04:22:51;102009.03;;;15.40;70.84
45285;BME280;31026;43.780;25.948;2022-12-18T04:25:19;102027.78;;;15.38;70.71
45285;BME280;31026;43.780;25.948;2022-12-18T04:27:48;102036.56;;;15.40;70.88
45285;BME280;31026;43.780;25.948;2022-12-18T04:30:16;102035.78;;;15.38;70.69
45285;BME280;31026;43.780;25.948;2022-12-18T04:32:47;102041.13;;;15.38;70.71
45285;BME280;31026;43.780;25.948;2022-12-18T04:35:15;102043.00;;;15.36;70.85
45285;BME280;31026;43.780;25.948;2022-12-18T04:37:44;102043.00;;;15.36;70.88
45285;BME280;31026;43.780;25.948;2022-12-18T04:40:12;102049.19;;;15.37;70.94
45285;BME280;31026;43.780;25.948;2022-12-18T04:42:40;102057.09;;;15.38;70.88
45285;BME280;31026;43.780;25.948;2022-12-18T04:45:09;102065.19;;;15.37;70.70
45285;BME280;31026;43.780;25.948;2022-12-18T04:47:37;102064.47;;;15.33;70.94
45285;BME280;31026;43.780;25.948;2022-12-18T04:50:08;102080.31;;;15.36;70.79
45285;BME280;31026;43.780;25.948;2022-12-18T04:52:37;102075.84;;;15.37;70.85
45285;BME280;31026;43.780;25.948;2022-12-18T04:55:05;102055.53;;;15.34;70.59
45285;BME280;31026;43.780;25.948;2022-12-18T04:57:34;102077.72;;;15.35;70.70
45285;BME280;31026;43.780;25.948;2022-12-18T05:00:02;102083.97;;;15.34;70.58
45285;BME280;31026;43.780;25.948;2022-12-18T05:02:31;102086.75;;;15.32;70.70
45285;BME280;31026;43.780;25.948;2022-12-18T05:04:59;102097.31;;;15.34;70.52
45285;BME280;31026;43.780;25.948;2022-12-18T05:07:30;102098.00;;;15.37;70.66
45285;BME280;31026;43.780;25.948;2022-12-18T05:09:58;102113.16;;;15.37;70.59
45285;BME280;31026;43.780;25.948;2022-12-18T05:12:27;102109.72;;;15.35;70.67
45285;BME280;31026;43.780;25.948;2022-12-18T05:14:55;102113.28;;;15.34;70.50
45285;BME280;31026;43.780;25.948;2022-12-18T05:17:23;102107.09;;;15.33;70.52
45285;BME280;31026;43.780;25.948;2022-12-18T05:19:52;102119.66;;;15.31;70.77
45285;BME280;31026;43.780;25.948;2022-12-18T05:22:20;102127.66;;;15.31;70.68
45285;BME280;31026;43.780;25.948;2022-12-18T05:24:52;102133.16;;;15.28;70.72
45285;BME280;31026;43.780;25.948;2022-12-18T05:27:20;102122.38;;;15.29;70.43
45285;BME280;31026;43.780;25.948;2022-12-18T05:29:49;102127.56;;;15.32;70.42
45285;BME280;31026;43.780;25.948;2022-12-18T05:32:17;102132.13;;;15.30;70.72
45285;BME280;31026;43.780;25.948;2022-12-18T05:34:45;102148.84;;;15.34;70.38
45285;BME280;31026;43.780;25.948;2022-12-18T05:37:14;102126.78;;;15.30;70.31
45285;BME280;31026;43.780;25.948;2022-12-18T05:39:42;102151.63;;;15.31;70.61
45285;BME280;31026;43.780;25.948;2022-12-18T05:42:13;102150.00;;;15.28;70.66
45285;BME280;31026;43.780;25.948;2022-12-18T05:44:41;102155.09;;;15.33;70.54
45285;BME280;31026;43.780;25.948;2022-12-18T05:47:11;102150.00;;;15.28;70.38
45285;BME280;31026;43.780;25.948;2022-12-18T05:49:39;102150.00;;;15.28;70.27
45285;BME280;31026;43.780;25.948;2022-12-18T05:52:07;102150.06;;;15.27;70.35
45285;BME280;31026;43.780;25.948;2022-12-18T05:54:36;102155.53;;;15.24;70.32
45285;BME280;31026;43.780;25.948;2022-12-18T05:57:04;102170.59;;;15.25;70.69
45285;BME280;31026;43.780;25.948;2022-12-18T05:59:35;102180.31;;;15.26;70.40
45285;BME280;31026;43.780;25.948;2022-12-18T06:02:04;102188.31;;;15.26;70.56
45285;BME280;31026;43.780;25.948;2022-12-18T06:04:32;102177.81;;;15.23;70.40
45285;BME280;31026;43.780;25.948;2022-12-18T06:07:00;102171.53;;;15.24;70.33
45285;BME280;31026;43.780;25.948;2022-12-18T06:09:29;102176.84;;;15.24;70.43
45285;BME280;31026;43.780;25.948;2022-12-18T06:11:57;102198.19;;;15.24;70.48
45285;BME280;31026;43.780;25.948;2022-12-18T06:14:25;102203.50;;;15.24;70.39
45285;BME280;31026;43.780;25.948;2022-12-18T06:16:56;102214.94;;;15.26;70.19
45285;BME280;31026;43.780;25.948;2022-12-18T06:19:24;102199.91;;;15.25;70.51
45285;BME280;31026;43.780;25.948;2022-12-18T06:21:53;102200.84;;;15.24;70.22
45285;BME280;31026;43.780;25.948;2022-12-18T06:24:24;102204.41;;;15.24;70.23
45285;BME280;31026;43.780;25.948;2022-12-18T06:26:52;102212.47;;;15.23;70.42
45285;BME280;31026;43.780;25.948;2022-12-18T06:29:20;102210.56;;;15.25;70.12
45285;BME280;31026;43.780;25.948;2022-12-18T06:31:49;102226.44;;;15.28;70.12
45285;BME280;31026;43.780;25.948;2022-12-18T06:34:19;102216.75;;;15.25;70.13
45285;BME280;31026;43.780;25.948;2022-12-18T06:36:48;102216.94;;;15.22;70.44
45285;BME280;31026;43.780;25.948;2022-12-18T06:39:16;102244.13;;;15.29;69.99
45285;BME280;31026;43.780;25.948;2022-12-18T06:41:44;102223.66;;;15.29;69.83
45285;BME280;31026;43.780;25.948;2022-12-18T06:44:13;102233.72;;;15.24;70.22
45285;BME280;31026;43.780;25.948;2022-12-18T06:46:41;102250.47;;;15.26;70.01
45285;BME280;31026;43.780;25.948;2022-12-18T06:49:09;102245.28;;;15.23;70.05
45285;BME280;31026;43.780;25.948;2022-12-18T06:51:40;102259.41;;;15.25;70.36
45285;BME280;31026;43.780;25.948;2022-12-18T06:54:08;102256.97;;;15.21;70.02
45285;BME280;31026;43.780;25.948;2022-12-18T06:56:37;102258.69;;;15.22;70.37
45285;BME280;31026;43.780;25.948;2022-12-18T06:59:05;102271.09;;;15.23;70.30
45285;BME280;31026;43.780;25.948;2022-12-18T07:01:33;102267.31;;;15.27;70.05
45285;BME280;31026;43.780;25.948;2022-12-18T07:04:02;102288.00;;;15.22;70.14
45285;BME280;31026;43.780;25.948;2022-12-18T07:06:30;102276.41;;;15.23;70.20
45285;BME280;31026;43.780;25.948;2022-12-18T07:09:01;102283.44;;;15.24;70.20
45285;BME280;31026;43.780;25.948;2022-12-18T07:11:29;102281.81;;;15.21;70.28
45285;BME280;31026;43.780;25.948;2022-12-18T07:14:00;102297.88;;;15.20;70.38
45285;BME280;31026;43.780;25.948;2022-12-18T07:16:28;102296.94;;;15.21;70.07
45285;BME280;31026;43.780;25.948;2022-12-18T07:18:56;102294.28;;;15.21;70.07
45285;BME280;31026;43.780;25.948;2022-12-18T07:21:25;102287.06;;;15.23;70.08
45285;BME280;31026;43.780;25.948;2022-12-18T07:23:53;102308.22;;;15.26;70.07
45285;BME280;31026;43.780;25.948;2022-12-18T07:26:24;102311.63;;;15.29;70.13
45285;BME280;31026;43.780;25.948;2022-12-18T07:28:54;102301.06;;;15.28;70.05
45285;BME280;31026;43.780;25.948;2022-12-18T07:31:23;102321.28;;;15.32;69.88
45285;BME280;31026;43.780;25.948;2022-12-18T07:33:51;102321.28;;;15.32;70.02
45285;BME280;31026;43.780;25.948;2022-12-18T07:36:20;102316.75;;;15.34;69.92
45285;BME280;31026;43.780;25.948;2022-12-18T07:38:48;102326.53;;;15.34;69.89
45285;BME280;31026;43.780;25.948;2022-12-18T07:41:17;102331.00;;;15.33;69.90
45285;BME280;31026;43.780;25.948;2022-12-18T07:43:49;102341.66;;;15.33;69.56
45285;BME280;31026;43.780;25.948;2022-12-18T07:46:17;102340.75;;;15.34;69.67
45285;BME280;31026;43.780;25.948;2022-12-18T07:48:45;102348.63;;;15.36;69.83
45285;BME280;31026;43.780;25.948;2022-12-18T07:51:14;102353.97;;;15.36;69.72
45285;BME280;31026;43.780;25.948;2022-12-18T07:53:42;102360.97;;;15.38;69.68
45285;BME280;31026;43.780;25.948;2022-12-18T07:56:11;102352.03;;;15.39;69.54
45285;BME280;31026;43.780;25.948;2022-12-18T07:58:40;102362.69;;;15.39;69.74
45285;BME280;31026;43.780;25.948;2022-12-18T08:01:12;102369.75;;;15.40;69.82
45285;BME280;31026;43.780;25.948;2022-12-18T08:03:40;102360.09;;;15.38;69.62
45285;BME280;31026;43.780;25.948;2022-12-18T08:06:09;102356.50;;;15.39;69.55
45285;BME280;31026;43.780;25.948;2022-12-18T08:08:37;102361.66;;;15.42;69.22
45285;BME280;31026;43.780;25.948;2022-12-18T08:11:07;102367.00;;;15.42;69.44
45285;BME280;31026;43.780;25.948;2022-12-18T08:13:35;102360.03;;;15.39;69.42
45285;BME280;31026;43.780;25.948;2022-12-18T08:16:04;102366.16;;;15.41;69.32
45285;BME280;31026;43.780;25.948;2022-12-18T08:18:36;102366.16;;;15.41;69.49
45285;BME280;31026;43.780;25.948;2022-12-18T08:21:08;102360.03;;;15.39;69.63
45285;BME280;31026;43.780;25.948;2022-12-18T08:23:37;102366.16;;;15.41;69.38
45285;BME280;31026;43.780;25.948;2022-12-18T08:26:06;102365.41;;;15.38;69.50
45285;BME280;31026;43.780;25.948;2022-12-18T08:28:34;102373.28;;;15.41;69.51
45285;BME280;31026;43.780;25.948;2022-12-18T08:31:03;102369.09;;;15.35;69.40
45285;BME280;31026;43.780;25.948;2022-12-18T08:33:31;102368.97;;;15.38;69.56
45285;BME280;31026;43.780;25.948;2022-12-18T08:36:03;102367.16;;;15.39;69.31
45285;BME280;31026;43.780;25.948;2022-12-18T08:38:31;102366.31;;;15.38;69.37
45285;BME280;31026;43.780;25.948;2022-12-18T08:41:00;102383.22;;;15.37;69.59
45285;BME280;31026;43.780;25.948;2022-12-18T08:43:28;102403.63;;;15.38;69.55
45285;BME280;31026;43.780;25.948;2022-12-18T08:46:09;102396.44;;;15.40;69.45
45285;BME280;31026;43.780;25.948;2022-12-18T08:48:37;102383.22;;;15.37;69.36
45285;BME280;31026;43.780;25.948;2022-12-18T08:51:08;102367.16;;;15.39;69.24
45285;BME280;31026;43.780;25.948;2022-12-18T08:53:37;102380.56;;;15.37;69.64
45285;BME280;31026;43.780;25.948;2022-12-18T08:56:05;102369.03;;;15.37;69.60
45285;BME280;31026;43.780;25.948;2022-12-18T08:58:34;102376.25;;;15.35;69.63
45285;BME280;31026;43.780;25.948;2022-12-18T09:01:03;102378.84;;;15.36;69.39
45285;BME280;31026;43.780;25.948;2022-12-18T09:03:32;102386.34;;;15.28;69.81
45285;BME280;31026;43.780;25.948;2022-12-18T09:06:00;102387.25;;;15.27;69.75
45285;BME280;31026;43.780;25.948;2022-12-18T09:08:34;102392.66;;;15.25;69.83
45285;BME280;31026;43.780;25.948;2022-12-18T09:11:02;102394.53;;;15.23;69.68
45285;BME280;31026;43.780;25.948;2022-12-18T09:13:30;102393.38;;;15.29;69.62
45285;BME280;31026;43.780;25.948;2022-12-18T09:15:59;102384.59;;;15.27;69.55
45285;BME280;31026;43.780;25.948;2022-12-18T09:18:27;102393.66;;;15.23;69.79
45285;BME280;31026;43.780;25.948;2022-12-18T09:20:55;102391.94;;;15.22;69.88
45285;BME280;31026;43.780;25.948;2022-12-18T09:23:24;102377.69;;;15.23;69.70
45285;BME280;31026;43.780;25.948;2022-12-18T09:25:57;102399.84;;;15.23;69.63
45285;BME280;31026;43.780;25.948;2022-12-18T09:28:26;102375.94;;;15.22;69.63
45285;BME280;31026;43.780;25.948;2022-12-18T09:30:55;102391.88;;;15.23;69.89
45285;BME280;31026;43.780;25.948;2022-12-18T09:33:24;102390.06;;;15.24;69.56
45285;BME280;31026;43.780;25.948;2022-12-18T09:35:52;102388.34;;;15.23;69.48
45285;BME280;31026;43.780;25.948;2022-12-18T09:38:20;102397.25;;;15.22;69.64
45285;BME280;31026;43.780;25.948;2022-12-18T09:40:49;102392.66;;;15.25;69.51
45285;BME280;31026;43.780;25.948;2022-12-18T09:43:23;102387.31;;;15.25;69.50
45285;BME280;31026;43.780;25.948;2022-12-18T09:45:55;102384.59;;;15.27;69.47
45285;BME280;31026;43.780;25.948;2022-12-18T09:48:26;102379.41;;;15.24;69.66
45285;BME280;31026;43.780;25.948;2022-12-18T09:50:57;102376.81;;;15.22;69.83
45285;BME280;31026;43.780;25.948;2022-12-18T09:53:29;102372.47;;;15.20;69.73
45285;BME280;31026;43.780;25.948;2022-12-18T09:55:59;102380.41;;;15.21;69.68
45285;BME280;31026;43.780;25.948;2022-12-18T09:58:31;102378.69;;;15.20;69.79
45285;BME280;31026;43.780;25.948;2022-12-18T10:01:01;102393.66;;;15.23;69.86
45285;BME280;31026;43.780;25.948;2022-12-18T10:03:29;102376.09;;;15.19;69.42
45285;BME280;31026;43.780;25.948;2022-12-18T10:06:00;102374.16;;;15.22;69.49
45285;BME280;31026;43.780;25.948;2022-12-18T10:08:33;102389.34;;;15.20;69.53
45285;BME280;31026;43.780;25.948;2022-12-18T10:11:12;102385.50;;;15.26;69.57
45285;BME280;31026;43.780;25.948;2022-12-18T10:13:46;102379.50;;;15.22;69.31
45285;BME280;31026;43.780;25.948;2022-12-18T10:16:17;102393.91;;;15.18;69.78
45285;BME280;31026;43.780;25.948;2022-12-18T10:18:56;102396.47;;;15.20;69.58
45285;BME280;31026;43.780;25.948;2022-12-18T10:21:29;102384.94;;;15.19;69.58
45285;BME280;31026;43.780;25.948;2022-12-18T10:24:01;102390.34;;;15.18;69.71
45285;BME280;31026;43.780;25.948;2022-12-18T10:26:32;102408.06;;;15.19;69.62
45285;BME280;31026;43.780;25.948;2022-12-18T10:29:03;102406.50;;;15.15;69.78
45285;BME280;31026;43.780;25.948;2022-12-18T10:31:32;102407.34;;;15.15;69.72
45285;BME280;31026;43.780;25.948;2022-12-18T10:34:01;102409.22;;;15.13;69.76
45285;BME280;31026;43.780;25.948;2022-12-18T10:36:29;102406.50;;;15.15;69.42
45285;BME280;31026;43.780;25.948;2022-12-18T10:39:00;102407.22;;;15.18;69.51
45285;BME280;31026;43.780;25.948;2022-12-18T10:41:41;102414.41;;;15.16;69.48
45285;BME280;31026;43.780;25.948;2022-12-18T10:44:15;102417.00;;;15.18;69.48
45285;BME280;31026;43.780;25.948;2022-12-18T10:46:44;102421.53;;;15.16;69.62
45285;BME280;31026;43.780;25.948;2022-12-18T10:49:18;102436.88;;;15.10;69.39
45285;BME280;31026;43.780;25.948;2022-12-18T10:51:47;102420.59;;;15.17;69.67
45285;BME280;31026;43.780;25.948;2022-12-18T10:54:16;102420.59;;;15.17;69.48
45285;BME280;31026;43.780;25.948;2022-12-18T10:56:45;102427.81;;;15.15;69.23
45285;BME280;31026;43.780;25.948;2022-12-18T10:59:17;102430.53;;;15.13;69.50
45285;BME280;31026;43.780;25.948;2022-12-18T11:01:49;102428.94;;;15.09;69.54
45285;BME280;31026;43.780;25.948;2022-12-18T11:04:20;102445.00;;;15.07;69.75
45285;BME280;31026;43.780;25.948;2022-12-18T11:06:55;102433.41;;;15.08;69.80
45285;BME280;31026;43.780;25.948;2022-12-18T11:09:25;102437.78;;;15.09;69.75
45285;BME280;31026;43.780;25.948;2022-12-18T11:11:54;102438.00;;;15.05;69.49
45285;BME280;31026;43.780;25.948;2022-12-18T11:14:28;102432.47;;;15.09;69.76
45285;BME280;31026;43.780;25.948;2022-12-18T11:16:57;102430.75;;;15.08;69.66
45285;BME280;31026;43.780;25.948;2022-12-18T11:19:29;102438.75;;;15.08;69.53
45285;BME280;31026;43.780;25.948;2022-12-18T11:21:59;102437.00;;;15.07;69.25
45285;BME280;31026;43.780;25.948;2022-12-18T11:24:29;102439.66;;;15.07;69.39
45285;BME280;31026;43.780;25.948;2022-12-18T11:26:59;102428.22;;;15.05;69.84
45285;BME280;31026;43.780;25.948;2022-12-18T11:29:35;102435.28;;;15.06;69.70
45285;BME280;31026;43.780;25.948;2022-12-18T11:32:12;102454.72;;;15.08;69.33
45285;BME280;31026;43.780;25.948;2022-12-18T11:34:49;102451.19;;;15.08;69.71
45285;BME280;31026;43.780;25.948;2022-12-18T11:37:19;102452.25;;;15.04;69.51
45285;BME280;31026;43.780;25.948;2022-12-18T11:39:50;102453.94;;;15.06;69.49
45285;BME280;31026;43.780;25.948;2022-12-18T11:42:22;102438.13;;;15.02;69.33
45285;BME280;31026;43.780;25.948;2022-12-18T11:44:55;102460.19;;;15.05;69.61
45285;BME280;31026;43.780;25.948;2022-12-18T11:47:28;102455.66;;;15.07;69.64
45285;BME280;31026;43.780;25.948;2022-12-18T11:50:00;102443.28;;;15.06;69.49
45285;BME280;31026;43.780;25.948;2022-12-18T11:52:30;102461.94;;;15.06;69.42
45285;BME280;31026;43.780;25.948;2022-12-18T11:55:04;102449.41;;;15.08;69.74
45285;BME280;31026;43.780;25.948;2022-12-18T11:57:37;102463.78;;;15.04;69.46
45285;BME280;31026;43.780;25.948;2022-12-18T12:00:15;102461.13;;;15.04;69.52
45285;BME280;31026;43.780;25.948;2022-12-18T12:02:49;102455.88;;;15.03;69.61
45285;BME280;31026;43.780;25.948;2022-12-18T12:05:28;102476.16;;;15.05;69.67
45285;BME280;31026;43.780;25.948;2022-12-18T12:08:01;102460.34;;;15.02;69.33
45285;BME280;31026;43.780;25.948;2022-12-18T12:10:38;102451.53;;;15.00;69.36
45285;BME280;31026;43.780;25.948;2022-12-18T12:13:13;102453.41;;;14.98;69.20
45285;BME280;31026;43.780;25.948;2022-12-18T12:15:48;102477.28;;;15.00;69.26
45285;BME280;31026;43.780;25.948;2022-12-18T12:18:22;102462.19;;;15.00;69.35
45285;BME280;31026;43.780;25.948;2022-12-18T12:20:53;102462.19;;;15.00;69.55
45285;BME280;31026;43.780;25.948;2022-12-18T12:23:27;102464.94;;;14.99;69.43
45285;BME280;31026;43.780;25.948;2022-12-18T12:26:02;102469.25;;;15.01;69.43
45285;BME280;31026;43.780;25.948;2022-12-18T12:28:40;102454.28;;;14.99;69.51
45285;BME280;31026;43.780;25.948;2022-12-18T12:31:16;102455.28;;;14.96;69.23
45285;BME280;31026;43.780;25.948;2022-12-18T12:33:49;102464.94;;;14.99;69.37
45285;BME280;31026;43.780;25.948;2022-12-18T12:36:22;102457.72;;;15.01;69.67
45285;BME280;31026;43.780;25.948;2022-12-18T12:38:55;102467.53;;;15.00;69.39
45285;BME280;31026;43.780;25.948;2022-12-18T12:41:25;102471.84;;;15.03;69.56
45285;BME280;31026;43.780;25.948;2022-12-18T12:44:08;102469.25;;;15.01;69.70
45285;BME280;31026;43.780;25.948;2022-12-18T12:46:40;102458.75;;;14.98;69.68
45285;BME280;31026;43.780;25.948;2022-12-18T12:49:11;102475.44;;;15.02;69.32
45285;BME280;31026;43.780;25.948;2022-12-18T12:51:41;102470.25;;;14.99;69.30
45285;BME280;31026;43.780;25.948;2022-12-18T12:54:12;102471.13;;;14.99;69.26
45285;BME280;31026;43.780;25.948;2022-12-18T12:56:44;102468.44;;;14.99;69.72